Terminal Aerodrome Forecast
Issued by NWS

Home | Current Version | Previous Version | Text Only | Print | Product List | Glossary On
Versions: 1 2 3 4 5 6 7 8 9 10 11 12 13 14 15 16 17
000
FTUS43 KEAX 241900 AAA
TAFSTJ
TAF AMD
KSTJ 241914Z 2419/2518 20009KT P6SM OVC100
      TEMPO 2419/2420 -RA
     FM242300 19006KT P6SM RA SCT025 OVC035
     FM250600 20008KT P6SM OVC080=

USA.gov is the U.S. government's official web portal to all federal, state and local government web resources and services.